sensor_id;sensor_type;location;lat;lon;timestamp;temperature;humidity
47418;DHT22;61796;48.808;8.194;2022-07-23T00:00:59;25.90;72.40
47418;DHT22;61796;48.808;8.194;2022-07-23T00:02:41;25.90;72.40
47418;DHT22;61796;48.808;8.194;2022-07-23T00:04:24;25.90;72.40
47418;DHT22;61796;48.808;8.194;2022-07-23T00:06:06;25.90;72.40
47418;DHT22;61796;48.808;8.194;2022-07-23T00:07:50;25.90;72.40
47418;DHT22;61796;48.808;8.194;2022-07-23T00:09:32;25.90;72.50
47418;DHT22;61796;48.808;8.194;2022-07-23T00:11:14;25.90;72.50
47418;DHT22;61796;48.808;8.194;2022-07-23T00:12:56;25.90;72.50
47418;DHT22;61796;48.808;8.194;2022-07-23T00:14:37;25.80;72.50
47418;DHT22;61796;48.808;8.194;2022-07-23T00:16:19;25.80;72.50
47418;DHT22;61796;48.808;8.194;2022-07-23T00:18:01;25.80;72.50
47418;DHT22;61796;48.808;8.194;2022-07-23T00:19:44;25.80;72.50
47418;DHT22;61796;48.808;8.194;2022-07-23T00:21:25;25.90;72.60
47418;DHT22;61796;48.808;8.194;2022-07-23T00:23:07;25.80;72.40
47418;DHT22;61796;48.808;8.194;2022-07-23T00:24:49;25.80;72.50
47418;DHT22;61796;48.808;8.194;2022-07-23T00:26:51;25.80;72.50
47418;DHT22;61796;48.808;8.194;2022-07-23T00:28:33;25.80;72.50
47418;DHT22;61796;48.808;8.194;2022-07-23T00:30:14;25.90;72.50
47418;DHT22;61796;48.808;8.194;2022-07-23T00:31:56;25.80;72.50
47418;DHT22;61796;48.808;8.194;2022-07-23T00:33:38;25.90;72.60
47418;DHT22;61796;48.808;8.194;2022-07-23T00:35:22;25.80;72.50
47418;DHT22;61796;48.808;8.194;2022-07-23T00:37:04;25.80;72.60
47418;DHT22;61796;48.808;8.194;2022-07-23T00:38:45;25.80;72.60
47418;DHT22;61796;48.808;8.194;2022-07-23T00:40:28;25.80;72.70
47418;DHT22;61796;48.808;8.194;2022-07-23T00:42:10;25.80;72.70
47418;DHT22;61796;48.808;8.194;2022-07-23T00:43:52;25.80;72.70
47418;DHT22;61796;48.808;8.194;2022-07-23T00:45:34;25.80;72.70
47418;DHT22;61796;48.808;8.194;2022-07-23T00:47:15;25.80;72.60
47418;DHT22;61796;48.808;8.194;2022-07-23T00:48:57;25.80;72.60
47418;DHT22;61796;48.808;8.194;2022-07-23T00:50:42;25.80;72.60
47418;DHT22;61796;48.808;8.194;2022-07-23T00:52:24;25.80;72.60
47418;DHT22;61796;48.808;8.194;2022-07-23T00:54:06;25.80;72.60
47418;DHT22;61796;48.808;8.194;2022-07-23T00:55:47;25.80;72.60
47418;DHT22;61796;48.808;8.194;2022-07-23T00:57:29;25.80;72.60
47418;DHT22;61796;48.808;8.194;2022-07-23T00:59:11;25.80;72.60
47418;DHT22;61796;48.808;8.194;2022-07-23T01:00:53;25.80;72.60
47418;DHT22;61796;48.808;8.194;2022-07-23T01:02:35;25.80;72.60
47418;DHT22;61796;48.808;8.194;2022-07-23T01:04:17;25.80;72.70
47418;DHT22;61796;48.808;8.194;2022-07-23T01:06:00;25.80;72.70
47418;DHT22;61796;48.808;8.194;2022-07-23T01:07:42;25.80;72.70
47418;DHT22;61796;48.808;8.194;2022-07-23T01:09:24;25.80;72.70
47418;DHT22;61796;48.808;8.194;2022-07-23T01:11:06;25.80;72.70
47418;DHT22;61796;48.808;8.194;2022-07-23T01:12:48;25.80;72.70
47418;DHT22;61796;48.808;8.194;2022-07-23T01:14:30;25.80;72.70
47418;DHT22;61796;48.808;8.194;2022-07-23T01:16:11;25.80;72.80
47418;DHT22;61796;48.808;8.194;2022-07-23T01:17:53;25.70;72.60
47418;DHT22;61796;48.808;8.194;2022-07-23T01:19:35;25.80;72.70
47418;DHT22;61796;48.808;8.194;2022-07-23T01:21:18;25.70;72.70
47418;DHT22;61796;48.808;8.194;2022-07-23T01:23:02;25.70;72.70
47418;DHT22;61796;48.808;8.194;2022-07-23T01:24:44;25.70;72.70
47418;DHT22;61796;48.808;8.194;2022-07-23T01:26:25;25.70;72.70
47418;DHT22;61796;48.808;8.194;2022-07-23T01:28:07;25.70;72.70
47418;DHT22;61796;48.808;8.194;2022-07-23T01:29:49;25.70;72.70
47418;DHT22;61796;48.808;8.194;2022-07-23T01:31:31;25.70;72.60
47418;DHT22;61796;48.808;8.194;2022-07-23T01:33:13;25.70;72.70
47418;DHT22;61796;48.808;8.194;2022-07-23T01:34:55;25.70;72.70
47418;DHT22;61796;48.808;8.194;2022-07-23T01:36:37;25.70;72.70
47418;DHT22;61796;48.808;8.194;2022-07-23T01:38:20;25.70;72.70
47418;DHT22;61796;48.808;8.194;2022-07-23T01:40:03;25.70;72.80
47418;DHT22;61796;48.808;8.194;2022-07-23T01:41:45;25.70;72.70
47418;DHT22;61796;48.808;8.194;2022-07-23T01:43:31;25.70;72.70
47418;DHT22;61796;48.808;8.194;2022-07-23T01:45:13;25.70;72.70
47418;DHT22;61796;48.808;8.194;2022-07-23T01:46:55;25.70;72.70
47418;DHT22;61796;48.808;8.194;2022-07-23T01:48:37;25.70;72.70
47418;DHT22;61796;48.808;8.194;2022-07-23T01:50:18;25.70;72.80
47418;DHT22;61796;48.808;8.194;2022-07-23T01:52:00;25.70;72.90
47418;DHT22;61796;48.808;8.194;2022-07-23T01:53:44;25.70;72.90
47418;DHT22;61796;48.808;8.194;2022-07-23T01:55:25;25.70;72.90
47418;DHT22;61796;48.808;8.194;2022-07-23T01:57:07;25.70;72.90
47418;DHT22;61796;48.808;8.194;2022-07-23T01:58:50;25.70;72.90
47418;DHT22;61796;48.808;8.194;2022-07-23T02:00:31;25.70;73.00
47418;DHT22;61796;48.808;8.194;2022-07-23T02:02:13;25.70;73.00
47418;DHT22;61796;48.808;8.194;2022-07-23T02:03:55;25.70;73.00
47418;DHT22;61796;48.808;8.194;2022-07-23T02:05:37;25.70;73.00
47418;DHT22;61796;48.808;8.194;2022-07-23T02:07:19;25.70;73.00
47418;DHT22;61796;48.808;8.194;2022-07-23T02:09:02;25.70;73.00
47418;DHT22;61796;48.808;8.194;2022-07-23T02:10:44;25.70;73.10
47418;DHT22;61796;48.808;8.194;2022-07-23T02:12:26;25.70;73.10
47418;DHT22;61796;48.808;8.194;2022-07-23T02:14:08;25.70;73.10
47418;DHT22;61796;48.808;8.194;2022-07-23T02:15:50;25.70;73.00
47418;DHT22;61796;48.808;8.194;2022-07-23T02:17:32;25.70;73.00
47418;DHT22;61796;48.808;8.194;2022-07-23T02:19:14;25.70;73.00
47418;DHT22;61796;48.808;8.194;2022-07-23T02:20:56;25.70;73.00
47418;DHT22;61796;48.808;8.194;2022-07-23T02:22:38;25.70;73.00
47418;DHT22;61796;48.808;8.194;2022-07-23T02:24:21;25.70;73.10
47418;DHT22;61796;48.808;8.194;2022-07-23T02:26:03;25.70;73.10
47418;DHT22;61796;48.808;8.194;2022-07-23T02:27:45;25.70;73.10
47418;DHT22;61796;48.808;8.194;2022-07-23T02:29:26;25.70;73.10
47418;DHT22;61796;48.808;8.194;2022-07-23T02:31:08;25.70;73.10
47418;DHT22;61796;48.808;8.194;2022-07-23T02:32:50;25.70;73.10
47418;DHT22;61796;48.808;8.194;2022-07-23T02:34:32;25.70;73.10
47418;DHT22;61796;48.808;8.194;2022-07-23T02:36:14;25.70;73.10
47418;DHT22;61796;48.808;8.194;2022-07-23T02:37:55;25.70;73.10
47418;DHT22;61796;48.808;8.194;2022-07-23T02:39:39;25.70;73.10
47418;DHT22;61796;48.808;8.194;2022-07-23T02:41:20;25.70;73.10
47418;DHT22;61796;48.808;8.194;2022-07-23T02:43:02;25.70;73.10
47418;DHT22;61796;48.808;8.194;2022-07-23T02:44:44;25.70;73.20
47418;DHT22;61796;48.808;8.194;2022-07-23T02:46:26;25.70;73.20
47418;DHT22;61796;48.808;8.194;2022-07-23T02:48:08;25.70;73.20
47418;DHT22;61796;48.808;8.194;2022-07-23T02:49:49;25.70;73.20
47418;DHT22;61796;48.808;8.194;2022-07-23T02:51:31;25.60;73.20
47418;DHT22;61796;48.808;8.194;2022-07-23T02:53:13;25.70;73.20
47418;DHT22;61796;48.808;8.194;2022-07-23T02:54:56;25.70;73.20
47418;DHT22;61796;48.808;8.194;2022-07-23T02:56:38;25.70;73.20
47418;DHT22;61796;48.808;8.194;2022-07-23T02:58:20;25.70;73.20
47418;DHT22;61796;48.808;8.194;2022-07-23T03:00:03;25.70;73.20
47418;DHT22;61796;48.808;8.194;2022-07-23T03:01:45;25.70;73.20
47418;DHT22;61796;48.808;8.194;2022-07-23T03:03:26;25.60;73.20
47418;DHT22;61796;48.808;8.194;2022-07-23T03:05:10;25.60;73.20
47418;DHT22;61796;48.808;8.194;2022-07-23T03:06:52;25.60;73.20
47418;DHT22;61796;48.808;8.194;2022-07-23T03:08:34;25.70;73.30
47418;DHT22;61796;48.808;8.194;2022-07-23T03:10:17;25.70;73.20
47418;DHT22;61796;48.808;8.194;2022-07-23T03:11:59;25.60;73.20
47418;DHT22;61796;48.808;8.194;2022-07-23T03:13:41;25.60;73.80
47418;DHT22;61796;48.808;8.194;2022-07-23T03:15:23;25.70;73.30
47418;DHT22;61796;48.808;8.194;2022-07-23T03:17:05;25.70;73.20
47418;DHT22;61796;48.808;8.194;2022-07-23T03:18:46;25.70;73.20
47418;DHT22;61796;48.808;8.194;2022-07-23T03:20:28;25.70;73.20
47418;DHT22;61796;48.808;8.194;2022-07-23T03:22:10;25.70;73.30
47418;DHT22;61796;48.808;8.194;2022-07-23T03:23:52;25.70;73.20
47418;DHT22;61796;48.808;8.194;2022-07-23T03:25:35;25.70;73.20
47418;DHT22;61796;48.808;8.194;2022-07-23T03:27:16;25.60;73.20
47418;DHT22;61796;48.808;8.194;2022-07-23T03:28:58;25.70;73.30
47418;DHT22;61796;48.808;8.194;2022-07-23T03:30:40;25.70;73.20
47418;DHT22;61796;48.808;8.194;2022-07-23T03:32:22;25.70;73.20
47418;DHT22;61796;48.808;8.194;2022-07-23T03:34:04;25.60;73.30
47418;DHT22;61796;48.808;8.194;2022-07-23T03:35:47;25.60;73.30
47418;DHT22;61796;48.808;8.194;2022-07-23T03:37:29;25.60;73.30
47418;DHT22;61796;48.808;8.194;2022-07-23T03:39:11;25.60;73.40
47418;DHT22;61796;48.808;8.194;2022-07-23T03:40:56;25.60;73.40
47418;DHT22;61796;48.808;8.194;2022-07-23T03:42:38;25.60;73.40
47418;DHT22;61796;48.808;8.194;2022-07-23T03:44:19;25.60;73.40
47418;DHT22;61796;48.808;8.194;2022-07-23T03:46:01;25.60;73.40
47418;DHT22;61796;48.808;8.194;2022-07-23T03:47:43;25.60;73.30
47418;DHT22;61796;48.808;8.194;2022-07-23T03:49:25;25.60;73.40
47418;DHT22;61796;48.808;8.194;2022-07-23T03:51:07;25.60;73.40
47418;DHT22;61796;48.808;8.194;2022-07-23T03:52:49;25.60;73.40
47418;DHT22;61796;48.808;8.194;2022-07-23T03:54:30;25.60;73.40
47418;DHT22;61796;48.808;8.194;2022-07-23T03:56:14;25.60;73.30
47418;DHT22;61796;48.808;8.194;2022-07-23T03:57:55;25.60;73.30
47418;DHT22;61796;48.808;8.194;2022-07-23T03:59:37;25.60;73.40
47418;DHT22;61796;48.808;8.194;2022-07-23T04:01:19;25.60;73.30
47418;DHT22;61796;48.808;8.194;2022-07-23T04:03:01;25.60;73.30
47418;DHT22;61796;48.808;8.194;2022-07-23T04:04:42;25.60;73.40
47418;DHT22;61796;48.808;8.194;2022-07-23T04:06:24;25.60;73.40
47418;DHT22;61796;48.808;8.194;2022-07-23T04:08:06;25.50;73.30
47418;DHT22;61796;48.808;8.194;2022-07-23T04:09:48;25.60;73.40
47418;DHT22;61796;48.808;8.194;2022-07-23T04:11:31;25.60;73.40
47418;DHT22;61796;48.808;8.194;2022-07-23T04:13:13;25.60;73.50
47418;DHT22;61796;48.808;8.194;2022-07-23T04:14:55;25.60;73.50
47418;DHT22;61796;48.808;8.194;2022-07-23T04:16:37;25.60;73.50
47418;DHT22;61796;48.808;8.194;2022-07-23T04:18:18;25.60;73.50
47418;DHT22;61796;48.808;8.194;2022-07-23T04:20:00;25.50;73.40
47418;DHT22;61796;48.808;8.194;2022-07-23T04:21:42;25.50;73.40
47418;DHT22;61796;48.808;8.194;2022-07-23T04:23:24;25.60;73.40
47418;DHT22;61796;48.808;8.194;2022-07-23T04:25:07;25.60;73.40
47418;DHT22;61796;48.808;8.194;2022-07-23T04:26:51;25.60;73.40
47418;DHT22;61796;48.808;8.194;2022-07-23T04:28:33;25.60;73.30
47418;DHT22;61796;48.808;8.194;2022-07-23T04:30:15;25.60;73.30
47418;DHT22;61796;48.808;8.194;2022-07-23T04:31:57;25.60;73.30
47418;DHT22;61796;48.808;8.194;2022-07-23T04:33:38;25.60;73.20
47418;DHT22;61796;48.808;8.194;2022-07-23T04:35:20;25.60;73.30
47418;DHT22;61796;48.808;8.194;2022-07-23T04:37:02;25.60;73.30
47418;DHT22;61796;48.808;8.194;2022-07-23T04:38:44;25.60;73.40
47418;DHT22;61796;48.808;8.194;2022-07-23T04:40:31;25.60;73.40
47418;DHT22;61796;48.808;8.194;2022-07-23T04:42:14;25.60;73.40
47418;DHT22;61796;48.808;8.194;2022-07-23T04:43:56;25.60;73.40
47418;DHT22;61796;48.808;8.194;2022-07-23T04:45:38;25.60;73.40
47418;DHT22;61796;48.808;8.194;2022-07-23T04:47:20;25.60;73.50
47418;DHT22;61796;48.808;8.194;2022-07-23T04:49:03;25.60;73.50
47418;DHT22;61796;48.808;8.194;2022-07-23T04:50:46;25.60;73.50
47418;DHT22;61796;48.808;8.194;2022-07-23T04:52:28;25.60;73.50
47418;DHT22;61796;48.808;8.194;2022-07-23T04:54:09;25.60;74.10
47418;DHT22;61796;48.808;8.194;2022-07-23T04:55:51;25.60;73.40
47418;DHT22;61796;48.808;8.194;2022-07-23T04:57:34;25.50;73.40
47418;DHT22;61796;48.808;8.194;2022-07-23T04:59:16;25.60;73.50
47418;DHT22;61796;48.808;8.194;2022-07-23T05:00:58;25.60;73.50
47418;DHT22;61796;48.808;8.194;2022-07-23T05:02:39;25.60;73.40
47418;DHT22;61796;48.808;8.194;2022-07-23T05:04:21;25.60;73.40
47418;DHT22;61796;48.808;8.194;2022-07-23T05:06:03;25.60;73.40
47418;DHT22;61796;48.808;8.194;2022-07-23T05:07:45;25.60;73.50
47418;DHT22;61796;48.808;8.194;2022-07-23T05:09:27;25.60;73.50
47418;DHT22;61796;48.808;8.194;2022-07-23T05:11:08;25.60;73.50
47418;DHT22;61796;48.808;8.194;2022-07-23T05:12:52;25.60;73.50
47418;DHT22;61796;48.808;8.194;2022-07-23T05:14:33;25.50;73.40
47418;DHT22;61796;48.808;8.194;2022-07-23T05:16:15;25.60;73.50
47418;DHT22;61796;48.808;8.194;2022-07-23T05:17:57;25.60;73.40
47418;DHT22;61796;48.808;8.194;2022-07-23T05:19:39;25.60;73.40
47418;DHT22;61796;48.808;8.194;2022-07-23T05:21:21;25.60;73.30
47418;DHT22;61796;48.808;8.194;2022-07-23T05:23:03;25.60;73.40
47418;DHT22;61796;48.808;8.194;2022-07-23T05:24:45;25.60;73.40
47418;DHT22;61796;48.808;8.194;2022-07-23T05:26:26;25.60;73.40
47418;DHT22;61796;48.808;8.194;2022-07-23T05:28:10;25.60;73.40
47418;DHT22;61796;48.808;8.194;2022-07-23T05:29:51;25.60;73.40
47418;DHT22;61796;48.808;8.194;2022-07-23T05:31:33;25.60;73.40
47418;DHT22;61796;48.808;8.194;2022-07-23T05:33:15;25.60;73.40
47418;DHT22;61796;48.808;8.194;2022-07-23T05:34:59;25.60;73.40
47418;DHT22;61796;48.808;8.194;2022-07-23T05:36:41;25.60;73.40
47418;DHT22;61796;48.808;8.194;2022-07-23T05:38:22;25.60;73.40
47418;DHT22;61796;48.808;8.194;2022-07-23T05:40:06;25.60;73.40
47418;DHT22;61796;48.808;8.194;2022-07-23T05:41:48;25.60;73.40
47418;DHT22;61796;48.808;8.194;2022-07-23T05:43:31;25.60;73.40
47418;DHT22;61796;48.808;8.194;2022-07-23T05:45:13;25.60;73.40
47418;DHT22;61796;48.808;8.194;2022-07-23T05:46:55;25.60;73.40
47418;DHT22;61796;48.808;8.194;2022-07-23T05:48:37;25.60;73.40
47418;DHT22;61796;48.808;8.194;2022-07-23T05:50:19;25.60;73.50
47418;DHT22;61796;48.808;8.194;2022-07-23T05:52:04;25.60;73.40
47418;DHT22;61796;48.808;8.194;2022-07-23T05:53:45;25.60;73.50
47418;DHT22;61796;48.808;8.194;2022-07-23T05:55:27;25.60;73.50
47418;DHT22;61796;48.808;8.194;2022-07-23T05:57:09;25.60;73.50
47418;DHT22;61796;48.808;8.194;2022-07-23T05:58:52;25.60;73.50
47418;DHT22;61796;48.808;8.194;2022-07-23T06:00:35;25.60;73.50
47418;DHT22;61796;48.808;8.194;2022-07-23T06:02:16;25.60;73.50
47418;DHT22;61796;48.808;8.194;2022-07-23T06:03:58;25.60;73.50
47418;DHT22;61796;48.808;8.194;2022-07-23T06:05:40;25.60;73.60
47418;DHT22;61796;48.808;8.194;2022-07-23T06:07:22;25.50;73.60
47418;DHT22;61796;48.808;8.194;2022-07-23T06:09:03;25.60;73.60
47418;DHT22;61796;48.808;8.194;2022-07-23T06:10:46;25.60;73.60
47418;DHT22;61796;48.808;8.194;2022-07-23T06:12:27;25.50;73.60
47418;DHT22;61796;48.808;8.194;2022-07-23T06:14:11;25.60;73.70
47418;DHT22;61796;48.808;8.194;2022-07-23T06:15:52;25.60;73.70
47418;DHT22;61796;48.808;8.194;2022-07-23T06:17:34;25.50;73.70
47418;DHT22;61796;48.808;8.194;2022-07-23T06:19:16;25.50;73.70
47418;DHT22;61796;48.808;8.194;2022-07-23T06:20:58;25.50;73.70
47418;DHT22;61796;48.808;8.194;2022-07-23T06:22:41;25.50;73.70
47418;DHT22;61796;48.808;8.194;2022-07-23T06:24:23;25.50;74.30
47418;DHT22;61796;48.808;8.194;2022-07-23T06:26:05;25.50;73.70
47418;DHT22;61796;48.808;8.194;2022-07-23T06:27:46;25.50;73.70
47418;DHT22;61796;48.808;8.194;2022-07-23T06:29:29;25.50;73.70
47418;DHT22;61796;48.808;8.194;2022-07-23T06:31:11;25.50;73.70
47418;DHT22;61796;48.808;8.194;2022-07-23T06:32:53;25.60;73.70
47418;DHT22;61796;48.808;8.194;2022-07-23T06:34:35;25.50;73.70
47418;DHT22;61796;48.808;8.194;2022-07-23T06:36:17;25.50;73.70
47418;DHT22;61796;48.808;8.194;2022-07-23T06:37:58;25.50;73.70
47418;DHT22;61796;48.808;8.194;2022-07-23T06:39:40;25.50;74.40
47418;DHT22;61796;48.808;8.194;2022-07-23T06:41:23;25.50;73.80
47418;DHT22;61796;48.808;8.194;2022-07-23T06:43:04;25.50;73.80
47418;DHT22;61796;48.808;8.194;2022-07-23T06:44:47;25.50;73.80
47418;DHT22;61796;48.808;8.194;2022-07-23T06:46:29;25.50;73.80
47418;DHT22;61796;48.808;8.194;2022-07-23T06:48:11;25.50;73.80
47418;DHT22;61796;48.808;8.194;2022-07-23T06:49:53;25.50;73.70
47418;DHT22;61796;48.808;8.194;2022-07-23T06:51:34;25.50;73.80
47418;DHT22;61796;48.808;8.194;2022-07-23T06:53:16;25.50;73.80
47418;DHT22;61796;48.808;8.194;2022-07-23T06:54:58;25.50;73.80
47418;DHT22;61796;48.808;8.194;2022-07-23T06:56:40;25.50;73.80
47418;DHT22;61796;48.808;8.194;2022-07-23T06:58:22;25.50;73.80
47418;DHT22;61796;48.808;8.194;2022-07-23T07:00:06;25.50;73.70
47418;DHT22;61796;48.808;8.194;2022-07-23T07:01:48;25.50;73.70
47418;DHT22;61796;48.808;8.194;2022-07-23T07:03:30;25.50;73.80
47418;DHT22;61796;48.808;8.194;2022-07-23T07:05:12;25.50;73.80
47418;DHT22;61796;48.808;8.194;2022-07-23T07:06:53;25.50;73.80
47418;DHT22;61796;48.808;8.194;2022-07-23T07:08:35;25.50;74.00
47418;DHT22;61796;48.808;8.194;2022-07-23T07:10:17;25.50;73.90
47418;DHT22;61796;48.808;8.194;2022-07-23T07:11:59;25.50;73.90
47418;DHT22;61796;48.808;8.194;2022-07-23T07:13:42;25.50;73.90
47418;DHT22;61796;48.808;8.194;2022-07-23T07:15:25;25.50;73.90
47418;DHT22;61796;48.808;8.194;2022-07-23T07:17:07;25.50;73.80
47418;DHT22;61796;48.808;8.194;2022-07-23T07:18:49;25.50;73.90
47418;DHT22;61796;48.808;8.194;2022-07-23T07:20:31;25.50;73.90
47418;DHT22;61796;48.808;8.194;2022-07-23T07:22:13;25.50;73.90
47418;DHT22;61796;48.808;8.194;2022-07-23T07:23:54;25.50;73.90
47418;DHT22;61796;48.808;8.194;2022-07-23T07:25:36;25.50;73.90
47418;DHT22;61796;48.808;8.194;2022-07-23T07:27:18;25.50;73.90
47418;DHT22;61796;48.808;8.194;2022-07-23T07:29:00;25.50;73.90
47418;DHT22;61796;48.808;8.194;2022-07-23T07:30:43;25.50;73.90
47418;DHT22;61796;48.808;8.194;2022-07-23T07:32:25;25.50;73.90
47418;DHT22;61796;48.808;8.194;2022-07-23T07:34:27;25.50;73.90
47418;DHT22;61796;48.808;8.194;2022-07-23T07:36:09;25.50;73.90
47418;DHT22;61796;48.808;8.194;2022-07-23T07:37:54;25.50;74.00
47418;DHT22;61796;48.808;8.194;2022-07-23T07:39:35;25.50;74.00
47418;DHT22;61796;48.808;8.194;2022-07-23T07:41:17;25.50;74.00
47418;DHT22;61796;48.808;8.194;2022-07-23T07:42:59;25.50;74.00
47418;DHT22;61796;48.808;8.194;2022-07-23T07:44:41;25.50;74.00
47418;DHT22;61796;48.808;8.194;2022-07-23T07:46:24;25.50;74.10
47418;DHT22;61796;48.808;8.194;2022-07-23T07:48:06;25.50;74.10
47418;DHT22;61796;48.808;8.194;2022-07-23T07:49:47;25.50;74.10
47418;DHT22;61796;48.808;8.194;2022-07-23T07:51:29;25.50;74.10
47418;DHT22;61796;48.808;8.194;2022-07-23T07:53:11;25.50;74.10
47418;DHT22;61796;48.808;8.194;2022-07-23T07:54:53;25.50;74.20
47418;DHT22;61796;48.808;8.194;2022-07-23T07:56:35;25.50;74.10
47418;DHT22;61796;48.808;8.194;2022-07-23T07:58:17;25.50;74.00
47418;DHT22;61796;48.808;8.194;2022-07-23T07:59:59;25.50;74.10
47418;DHT22;61796;48.808;8.194;2022-07-23T08:01:49;25.50;74.10
47418;DHT22;61796;48.808;8.194;2022-07-23T08:03:31;25.50;74.10
47418;DHT22;61796;48.808;8.194;2022-07-23T08:05:13;25.50;74.00
47418;DHT22;61796;48.808;8.194;2022-07-23T08:06:55;25.50;74.00
47418;DHT22;61796;48.808;8.194;2022-07-23T08:08:37;25.50;74.00
47418;DHT22;61796;48.808;8.194;2022-07-23T08:10:19;25.50;73.90
47418;DHT22;61796;48.808;8.194;2022-07-23T08:12:01;25.50;74.00
47418;DHT22;61796;48.808;8.194;2022-07-23T08:13:43;25.50;73.90
47418;DHT22;61796;48.808;8.194;2022-07-23T08:15:26;25.50;73.90
47418;DHT22;61796;48.808;8.194;2022-07-23T08:17:09;25.50;74.00
47418;DHT22;61796;48.808;8.194;2022-07-23T08:18:56;25.50;74.00
47418;DHT22;61796;48.808;8.194;2022-07-23T08:20:37;25.50;74.00
47418;DHT22;61796;48.808;8.194;2022-07-23T08:22:19;25.50;74.00
47418;DHT22;61796;48.808;8.194;2022-07-23T08:24:01;25.60;74.10
47418;DHT22;61796;48.808;8.194;2022-07-23T08:25:44;25.60;74.00
47418;DHT22;61796;48.808;8.194;2022-07-23T08:27:25;25.60;73.80
47418;DHT22;61796;48.808;8.194;2022-07-23T08:29:07;25.60;72.50
47418;DHT22;61796;48.808;8.194;2022-07-23T08:30:49;25.60;72.20
47418;DHT22;61796;48.808;8.194;2022-07-23T08:32:32;25.60;72.60
47418;DHT22;61796;48.808;8.194;2022-07-23T08:34:26;25.60;72.40
47418;DHT22;61796;48.808;8.194;2022-07-23T08:36:08;25.60;72.40
47418;DHT22;61796;48.808;8.194;2022-07-23T08:37:50;25.60;72.30
47418;DHT22;61796;48.808;8.194;2022-07-23T08:39:32;25.60;72.30
47418;DHT22;61796;48.808;8.194;2022-07-23T08:41:14;25.60;72.40
47418;DHT22;61796;48.808;8.194;2022-07-23T08:42:58;25.60;72.30
47418;DHT22;61796;48.808;8.194;2022-07-23T08:44:42;25.60;72.90
47418;DHT22;61796;48.808;8.194;2022-07-23T08:46:26;25.70;72.70
47418;DHT22;61796;48.808;8.194;2022-07-23T08:48:12;25.60;72.40
47418;DHT22;61796;48.808;8.194;2022-07-23T08:49:54;25.70;72.50
47418;DHT22;61796;48.808;8.194;2022-07-23T08:51:36;25.70;72.50
47418;DHT22;61796;48.808;8.194;2022-07-23T08:53:20;25.70;72.10
47418;DHT22;61796;48.808;8.194;2022-07-23T08:55:03;25.70;72.30
47418;DHT22;61796;48.808;8.194;2022-07-23T08:56:44;25.70;72.50
47418;DHT22;61796;48.808;8.194;2022-07-23T08:58:26;25.60;72.00
47418;DHT22;61796;48.808;8.194;2022-07-23T09:00:10;25.60;72.70
47418;DHT22;61796;48.808;8.194;2022-07-23T09:01:52;25.40;79.00
47418;DHT22;61796;48.808;8.194;2022-07-23T09:03:36;25.30;85.90
47418;DHT22;61796;48.808;8.194;2022-07-23T09:05:19;25.10;87.40
47418;DHT22;61796;48.808;8.194;2022-07-23T09:07:01;25.00;88.50
47418;DHT22;61796;48.808;8.194;2022-07-23T09:08:44;25.00;88.70
47418;DHT22;61796;48.808;8.194;2022-07-23T09:10:26;25.10;88.90
47418;DHT22;61796;48.808;8.194;2022-07-23T09:12:09;25.60;92.90
47418;DHT22;61796;48.808;8.194;2022-07-23T09:13:52;25.00;91.20
47418;DHT22;61796;48.808;8.194;2022-07-23T09:15:48;25.00;91.60
47418;DHT22;61796;48.808;8.194;2022-07-23T09:17:39;25.00;90.80
47418;DHT22;61796;48.808;8.194;2022-07-23T09:19:27;24.90;74.70
47418;DHT22;61796;48.808;8.194;2022-07-23T09:21:15;24.90;75.30
47418;DHT22;61796;48.808;8.194;2022-07-23T09:22:57;24.90;74.90
47418;DHT22;61796;48.808;8.194;2022-07-23T09:25:08;24.90;72.00
47418;DHT22;61796;48.808;8.194;2022-07-23T09:26:50;24.90;71.40
47418;DHT22;61796;48.808;8.194;2022-07-23T09:28:32;24.80;71.20
47418;DHT22;61796;48.808;8.194;2022-07-23T09:30:30;24.90;71.40
47418;DHT22;61796;48.808;8.194;2022-07-23T09:32:13;24.90;71.10
47418;DHT22;61796;48.808;8.194;2022-07-23T09:34:10;24.90;70.70
47418;DHT22;61796;48.808;8.194;2022-07-23T09:35:54;24.90;71.10
47418;DHT22;61796;48.808;8.194;2022-07-23T09:37:36;24.90;70.80
47418;DHT22;61796;48.808;8.194;2022-07-23T09:39:25;24.90;70.30
47418;DHT22;61796;48.808;8.194;2022-07-23T09:41:07;25.00;70.40
47418;DHT22;61796;48.808;8.194;2022-07-23T09:42:55;25.00;70.80
47418;DHT22;61796;48.808;8.194;2022-07-23T09:44:41;25.00;70.90
47418;DHT22;61796;48.808;8.194;2022-07-23T09:46:24;25.10;71.10
47418;DHT22;61796;48.808;8.194;2022-07-23T09:48:14;25.10;70.90
47418;DHT22;61796;48.808;8.194;2022-07-23T09:50:00;25.20;71.10
47418;DHT22;61796;48.808;8.194;2022-07-23T09:51:49;25.20;71.20
47418;DHT22;61796;48.808;8.194;2022-07-23T09:53:31;25.30;71.90
47418;DHT22;61796;48.808;8.194;2022-07-23T09:55:13;25.20;71.30
47418;DHT22;61796;48.808;8.194;2022-07-23T09:56:55;25.30;71.30
47418;DHT22;61796;48.808;8.194;2022-07-23T09:58:39;25.30;71.40
47418;DHT22;61796;48.808;8.194;2022-07-23T10:00:22;25.30;71.60
47418;DHT22;61796;48.808;8.194;2022-07-23T10:02:07;25.30;71.60
47418;DHT22;61796;48.808;8.194;2022-07-23T10:03:49;25.30;71.70
47418;DHT22;61796;48.808;8.194;2022-07-23T10:05:33;25.30;71.80
47418;DHT22;61796;48.808;8.194;2022-07-23T10:07:19;25.20;71.80
47418;DHT22;61796;48.808;8.194;2022-07-23T10:09:03;25.30;72.10
47418;DHT22;61796;48.808;8.194;2022-07-23T10:10:45;25.20;72.20
47418;DHT22;61796;48.808;8.194;2022-07-23T10:12:27;25.20;72.30
47418;DHT22;61796;48.808;8.194;2022-07-23T10:14:09;25.20;72.60
47418;DHT22;61796;48.808;8.194;2022-07-23T10:15:51;25.20;72.50
47418;DHT22;61796;48.808;8.194;2022-07-23T10:17:33;25.20;72.40
47418;DHT22;61796;48.808;8.194;2022-07-23T10:19:16;25.20;72.60
47418;DHT22;61796;48.808;8.194;2022-07-23T10:20:59;25.20;72.30
47418;DHT22;61796;48.808;8.194;2022-07-23T10:22:47;25.20;72.70
47418;DHT22;61796;48.808;8.194;2022-07-23T10:24:58;25.10;73.00
47418;DHT22;61796;48.808;8.194;2022-07-23T10:26:47;25.10;73.10
47418;DHT22;61796;48.808;8.194;2022-07-23T10:28:49;25.10;73.20
47418;DHT22;61796;48.808;8.194;2022-07-23T10:30:41;25.10;73.20
47418;DHT22;61796;48.808;8.194;2022-07-23T10:32:35;25.10;73.20
47418;DHT22;61796;48.808;8.194;2022-07-23T10:34:24;25.10;73.10
47418;DHT22;61796;48.808;8.194;2022-07-23T10:36:12;25.10;73.30
47418;DHT22;61796;48.808;8.194;2022-07-23T10:38:10;25.10;73.30
47418;DHT22;61796;48.808;8.194;2022-07-23T10:40:11;25.10;73.30
47418;DHT22;61796;48.808;8.194;2022-07-23T10:42:07;25.10;73.30
47418;DHT22;61796;48.808;8.194;2022-07-23T10:44:05;25.10;73.40
47418;DHT22;61796;48.808;8.194;2022-07-23T10:45:49;25.10;73.40
47418;DHT22;61796;48.808;8.194;2022-07-23T10:47:32;25.10;73.40
47418;DHT22;61796;48.808;8.194;2022-07-23T10:49:27;25.10;73.40
47418;DHT22;61796;48.808;8.194;2022-07-23T10:51:12;25.10;73.60